Kaiserslautern Depot Army Heliport ETED

Flugplatz Daten

Name: Kaiserslautern Depot Army Heliport

Ident: ETED

Lat: 49,44777778

Long: 7,839722222

Platzhöhe: 950 ft

IataCode:

City: Kaiserslautern

Metar

2021/03/25 15:00
FQLC 251500Z 23008KT 9999 TS FEW017 BKN023 FEW025CB 21/18 Q1017 REDZ RMK CB ISOLLETED ALL/D

Taf

Gewünschte Webcam nicht vorhanden? Dann fügen Sie eine hinzu. Sie wird dann so schnell wie möglich freigeschaltet
Url: Title: